sensor_id;sensor_type;location;lat;lon;timestamp;temperature;humidity
80958;DHT22;70419;42.700;23.316;2023-10-31T00:01:23;13.30;57.50
80958;DHT22;70419;42.700;23.316;2023-10-31T00:03:49;13.30;57.40
80958;DHT22;70419;42.700;23.316;2023-10-31T00:06:15;13.10;57.70
80958;DHT22;70419;42.700;23.316;2023-10-31T00:08:40;13.00;57.90
80958;DHT22;70419;42.700;23.316;2023-10-31T00:11:06;13.00;58.30
80958;DHT22;70419;42.700;23.316;2023-10-31T00:13:32;13.10;58.50
80958;DHT22;70419;42.700;23.316;2023-10-31T00:15:57;13.00;58.40
80958;DHT22;70419;42.700;23.316;2023-10-31T00:18:23;13.00;58.30
80958;DHT22;70419;42.700;23.316;2023-10-31T00:20:49;13.00;58.20
80958;DHT22;70419;42.700;23.316;2023-10-31T00:23:15;12.90;58.50
80958;DHT22;70419;42.700;23.316;2023-10-31T00:25:41;12.90;58.50
80958;DHT22;70419;42.700;23.316;2023-10-31T00:28:06;12.90;58.60
80958;DHT22;70419;42.700;23.316;2023-10-31T00:30:32;12.80;58.70
80958;DHT22;70419;42.700;23.316;2023-10-31T00:32:58;12.70;58.90
80958;DHT22;70419;42.700;23.316;2023-10-31T00:35:24;12.70;59.00
80958;DHT22;70419;42.700;23.316;2023-10-31T00:37:49;12.70;59.00
80958;DHT22;70419;42.700;23.316;2023-10-31T00:40:15;12.80;59.10
80958;DHT22;70419;42.700;23.316;2023-10-31T00:42:42;12.70;59.20
80958;DHT22;70419;42.700;23.316;2023-10-31T00:45:08;12.60;59.60
80958;DHT22;70419;42.700;23.316;2023-10-31T00:47:34;12.50;60.10
80958;DHT22;70419;42.700;23.316;2023-10-31T00:50:00;12.40;60.50
80958;DHT22;70419;42.700;23.316;2023-10-31T00:52:25;12.40;60.40
80958;DHT22;70419;42.700;23.316;2023-10-31T00:54:51;12.50;60.20
80958;DHT22;70419;42.700;23.316;2023-10-31T00:57:17;12.50;60.20
80958;DHT22;70419;42.700;23.316;2023-10-31T00:59:43;12.60;59.90
80958;DHT22;70419;42.700;23.316;2023-10-31T01:02:09;12.50;59.70
80958;DHT22;70419;42.700;23.316;2023-10-31T01:04:36;12.50;59.90
80958;DHT22;70419;42.700;23.316;2023-10-31T01:07:01;12.50;60.00
80958;DHT22;70419;42.700;23.316;2023-10-31T01:09:27;12.50;60.10
80958;DHT22;70419;42.700;23.316;2023-10-31T01:11:53;12.50;60.10
80958;DHT22;70419;42.700;23.316;2023-10-31T01:14:19;12.40;60.20
80958;DHT22;70419;42.700;23.316;2023-10-31T01:16:45;12.50;60.50
80958;DHT22;70419;42.700;23.316;2023-10-31T01:19:11;12.40;60.60
80958;DHT22;70419;42.700;23.316;2023-10-31T01:21:37;12.40;60.80
80958;DHT22;70419;42.700;23.316;2023-10-31T01:24:03;12.30;61.00
80958;DHT22;70419;42.700;23.316;2023-10-31T01:26:28;12.30;61.30
80958;DHT22;70419;42.700;23.316;2023-10-31T01:28:54;12.30;61.20
80958;DHT22;70419;42.700;23.316;2023-10-31T01:31:20;12.30;61.50
80958;DHT22;70419;42.700;23.316;2023-10-31T01:33:46;12.30;61.60
80958;DHT22;70419;42.700;23.316;2023-10-31T01:36:12;12.30;61.20
80958;DHT22;70419;42.700;23.316;2023-10-31T01:38:38;12.30;61.30
80958;DHT22;70419;42.700;23.316;2023-10-31T01:41:04;12.30;61.40
80958;DHT22;70419;42.700;23.316;2023-10-31T01:43:33;12.30;61.10
80958;DHT22;70419;42.700;23.316;2023-10-31T01:45:59;12.30;61.20
80958;DHT22;70419;42.700;23.316;2023-10-31T01:48:27;12.30;61.20
80958;DHT22;70419;42.700;23.316;2023-10-31T01:50:54;12.30;61.30
80958;DHT22;70419;42.700;23.316;2023-10-31T01:53:20;12.20;61.30
80958;DHT22;70419;42.700;23.316;2023-10-31T01:55:46;12.20;61.50
80958;DHT22;70419;42.700;23.316;2023-10-31T01:58:12;12.20;61.50
80958;DHT22;70419;42.700;23.316;2023-10-31T02:00:41;12.30;61.50
80958;DHT22;70419;42.700;23.316;2023-10-31T02:03:08;12.30;61.40
80958;DHT22;70419;42.700;23.316;2023-10-31T02:05:35;12.20;61.80
80958;DHT22;70419;42.700;23.316;2023-10-31T02:08:01;12.10;61.90
80958;DHT22;70419;42.700;23.316;2023-10-31T02:10:27;12.10;62.10
80958;DHT22;70419;42.700;23.316;2023-10-31T02:12:53;12.10;62.20
80958;DHT22;70419;42.700;23.316;2023-10-31T02:15:18;12.10;62.40
80958;DHT22;70419;42.700;23.316;2023-10-31T02:17:44;12.20;62.60
80958;DHT22;70419;42.700;23.316;2023-10-31T02:20:10;12.20;62.40
80958;DHT22;70419;42.700;23.316;2023-10-31T02:22:36;12.00;63.10
80958;DHT22;70419;42.700;23.316;2023-10-31T02:25:01;12.10;62.30
80958;DHT22;70419;42.700;23.316;2023-10-31T02:27:27;12.10;62.50
80958;DHT22;70419;42.700;23.316;2023-10-31T02:29:53;12.00;62.60
80958;DHT22;70419;42.700;23.316;2023-10-31T02:32:18;12.00;62.70
80958;DHT22;70419;42.700;23.316;2023-10-31T02:34:45;12.00;62.70
80958;DHT22;70419;42.700;23.316;2023-10-31T02:37:11;12.00;62.80
80958;DHT22;70419;42.700;23.316;2023-10-31T02:39:37;12.00;62.70
80958;DHT22;70419;42.700;23.316;2023-10-31T02:42:03;12.00;62.90
80958;DHT22;70419;42.700;23.316;2023-10-31T02:44:29;12.00;63.00
80958;DHT22;70419;42.700;23.316;2023-10-31T02:46:55;11.90;62.90
80958;DHT22;70419;42.700;23.316;2023-10-31T02:49:21;12.00;63.00
80958;DHT22;70419;42.700;23.316;2023-10-31T02:51:47;11.90;63.20
80958;DHT22;70419;42.700;23.316;2023-10-31T02:54:12;12.00;63.00
80958;DHT22;70419;42.700;23.316;2023-10-31T02:56:38;11.90;63.00
80958;DHT22;70419;42.700;23.316;2023-10-31T02:59:04;11.90;63.00
80958;DHT22;70419;42.700;23.316;2023-10-31T03:01:30;11.90;63.40
80958;DHT22;70419;42.700;23.316;2023-10-31T03:03:56;11.90;63.30
80958;DHT22;70419;42.700;23.316;2023-10-31T03:06:22;11.90;63.40
80958;DHT22;70419;42.700;23.316;2023-10-31T03:08:47;11.80;63.50
80958;DHT22;70419;42.700;23.316;2023-10-31T03:11:21;11.80;63.40
80958;DHT22;70419;42.700;23.316;2023-10-31T03:13:48;11.70;63.30
80958;DHT22;70419;42.700;23.316;2023-10-31T03:16:14;11.70;62.80
80958;DHT22;70419;42.700;23.316;2023-10-31T03:18:40;11.60;62.40
80958;DHT22;70419;42.700;23.316;2023-10-31T03:21:05;11.50;62.30
80958;DHT22;70419;42.700;23.316;2023-10-31T03:23:31;11.50;62.20
80958;DHT22;70419;42.700;23.316;2023-10-31T03:25:57;11.40;63.40
80958;DHT22;70419;42.700;23.316;2023-10-31T03:28:23;11.40;62.50
80958;DHT22;70419;42.700;23.316;2023-10-31T03:30:50;11.30;62.80
80958;DHT22;70419;42.700;23.316;2023-10-31T03:33:16;11.20;63.00
80958;DHT22;70419;42.700;23.316;2023-10-31T03:35:43;11.20;63.00
80958;DHT22;70419;42.700;23.316;2023-10-31T03:38:09;11.20;63.10
80958;DHT22;70419;42.700;23.316;2023-10-31T03:40:34;11.20;63.20
80958;DHT22;70419;42.700;23.316;2023-10-31T03:43:00;11.20;63.10
80958;DHT22;70419;42.700;23.316;2023-10-31T03:45:26;11.10;63.10
80958;DHT22;70419;42.700;23.316;2023-10-31T03:47:51;11.00;63.40
80958;DHT22;70419;42.700;23.316;2023-10-31T03:50:17;11.00;63.80
80958;DHT22;70419;42.700;23.316;2023-10-31T03:52:43;11.00;63.80
80958;DHT22;70419;42.700;23.316;2023-10-31T03:55:09;10.90;64.20
80958;DHT22;70419;42.700;23.316;2023-10-31T03:57:34;10.90;64.10
80958;DHT22;70419;42.700;23.316;2023-10-31T04:00:00;10.90;64.50
80958;DHT22;70419;42.700;23.316;2023-10-31T04:02:27;10.80;64.40
80958;DHT22;70419;42.700;23.316;2023-10-31T04:04:53;10.80;64.20
80958;DHT22;70419;42.700;23.316;2023-10-31T04:07:19;10.90;63.90
80958;DHT22;70419;42.700;23.316;2023-10-31T04:09:44;10.80;63.90
80958;DHT22;70419;42.700;23.316;2023-10-31T04:12:10;10.60;64.10
80958;DHT22;70419;42.700;23.316;2023-10-31T04:14:36;10.60;64.40
80958;DHT22;70419;42.700;23.316;2023-10-31T04:17:03;10.50;64.30
80958;DHT22;70419;42.700;23.316;2023-10-31T04:19:29;10.50;64.80
80958;DHT22;70419;42.700;23.316;2023-10-31T04:21:54;10.50;64.70
80958;DHT22;70419;42.700;23.316;2023-10-31T04:24:20;10.60;64.90
80958;DHT22;70419;42.700;23.316;2023-10-31T04:26:46;10.50;65.10
80958;DHT22;70419;42.700;23.316;2023-10-31T04:29:11;10.50;65.00
80958;DHT22;70419;42.700;23.316;2023-10-31T04:31:37;10.50;65.10
80958;DHT22;70419;42.700;23.316;2023-10-31T04:34:03;10.50;65.20
80958;DHT22;70419;42.700;23.316;2023-10-31T04:36:28;10.50;65.20
80958;DHT22;70419;42.700;23.316;2023-10-31T04:38:54;10.50;65.30
80958;DHT22;70419;42.700;23.316;2023-10-31T04:41:20;10.40;65.40
80958;DHT22;70419;42.700;23.316;2023-10-31T04:43:46;10.50;65.60
80958;DHT22;70419;42.700;23.316;2023-10-31T04:46:12;10.40;65.40
80958;DHT22;70419;42.700;23.316;2023-10-31T04:48:37;10.40;65.70
80958;DHT22;70419;42.700;23.316;2023-10-31T04:51:03;10.30;65.80
80958;DHT22;70419;42.700;23.316;2023-10-31T04:53:29;10.40;66.00
80958;DHT22;70419;42.700;23.316;2023-10-31T04:55:55;10.40;65.80
80958;DHT22;70419;42.700;23.316;2023-10-31T04:58:21;10.50;65.80
80958;DHT22;70419;42.700;23.316;2023-10-31T05:00:47;10.50;65.50
80958;DHT22;70419;42.700;23.316;2023-10-31T05:03:12;10.40;65.60
80958;DHT22;70419;42.700;23.316;2023-10-31T05:05:38;10.50;65.70
80958;DHT22;70419;42.700;23.316;2023-10-31T05:08:04;10.60;65.60
80958;DHT22;70419;42.700;23.316;2023-10-31T05:10:29;10.40;65.60
80958;DHT22;70419;42.700;23.316;2023-10-31T05:12:55;10.50;65.70
80958;DHT22;70419;42.700;23.316;2023-10-31T05:15:22;10.60;65.70
80958;DHT22;70419;42.700;23.316;2023-10-31T05:17:48;10.50;65.50
80958;DHT22;70419;42.700;23.316;2023-10-31T05:20:13;10.60;65.50
80958;DHT22;70419;42.700;23.316;2023-10-31T05:22:40;10.60;65.40
80958;DHT22;70419;42.700;23.316;2023-10-31T05:25:06;10.60;65.30
80958;DHT22;70419;42.700;23.316;2023-10-31T05:27:35;10.80;66.00
80958;DHT22;70419;42.700;23.316;2023-10-31T05:30:01;10.70;65.80
80958;DHT22;70419;42.700;23.316;2023-10-31T05:32:26;10.80;64.80
80958;DHT22;70419;42.700;23.316;2023-10-31T05:34:52;10.80;64.60
80958;DHT22;70419;42.700;23.316;2023-10-31T05:37:18;10.90;65.40
80958;DHT22;70419;42.700;23.316;2023-10-31T05:39:43;11.00;64.20
80958;DHT22;70419;42.700;23.316;2023-10-31T05:42:09;11.10;63.80
80958;DHT22;70419;42.700;23.316;2023-10-31T05:44:34;11.20;63.70
80958;DHT22;70419;42.700;23.316;2023-10-31T05:47:00;11.20;63.60
80958;DHT22;70419;42.700;23.316;2023-10-31T05:49:26;11.30;63.20
80958;DHT22;70419;42.700;23.316;2023-10-31T05:51:52;11.50;62.90
80958;DHT22;70419;42.700;23.316;2023-10-31T05:54:18;11.60;62.50
80958;DHT22;70419;42.700;23.316;2023-10-31T05:56:44;11.80;61.80
80958;DHT22;70419;42.700;23.316;2023-10-31T05:59:11;12.30;60.60
80958;DHT22;70419;42.700;23.316;2023-10-31T06:01:37;13.10;58.50
80958;DHT22;70419;42.700;23.316;2023-10-31T06:04:02;14.10;55.60
80958;DHT22;70419;42.700;23.316;2023-10-31T06:06:31;15.10;51.80
80958;DHT22;70419;42.700;23.316;2023-10-31T06:08:57;16.40;48.50
80958;DHT22;70419;42.700;23.316;2023-10-31T06:11:23;17.60;45.40
80958;DHT22;70419;42.700;23.316;2023-10-31T06:13:49;18.80;42.20
80958;DHT22;70419;42.700;23.316;2023-10-31T06:16:14;20.00;39.60
80958;DHT22;70419;42.700;23.316;2023-10-31T06:18:40;20.90;36.70
80958;DHT22;70419;42.700;23.316;2023-10-31T06:21:06;21.60;34.70
80958;DHT22;70419;42.700;23.316;2023-10-31T06:23:35;22.30;33.60
80958;DHT22;70419;42.700;23.316;2023-10-31T06:26:01;22.90;32.00
80958;DHT22;70419;42.700;23.316;2023-10-31T06:28:27;23.70;30.80
80958;DHT22;70419;42.700;23.316;2023-10-31T06:30:52;24.10;29.90
80958;DHT22;70419;42.700;23.316;2023-10-31T06:33:22;24.50;29.30
80958;DHT22;70419;42.700;23.316;2023-10-31T06:35:48;25.30;28.40
80958;DHT22;70419;42.700;23.316;2023-10-31T06:38:14;26.20;27.30
80958;DHT22;70419;42.700;23.316;2023-10-31T06:40:39;26.90;26.60
80958;DHT22;70419;42.700;23.316;2023-10-31T06:43:05;27.50;25.60
80958;DHT22;70419;42.700;23.316;2023-10-31T06:45:31;28.10;24.90
80958;DHT22;70419;42.700;23.316;2023-10-31T06:47:57;28.50;24.20
80958;DHT22;70419;42.700;23.316;2023-10-31T06:50:22;28.60;24.10
80958;DHT22;70419;42.700;23.316;2023-10-31T06:52:48;28.90;23.90
80958;DHT22;70419;42.700;23.316;2023-10-31T06:55:14;29.20;23.30
80958;DHT22;70419;42.700;23.316;2023-10-31T06:57:43;29.60;22.90
80958;DHT22;70419;42.700;23.316;2023-10-31T07:00:11;29.90;22.70
80958;DHT22;70419;42.700;23.316;2023-10-31T07:02:36;30.10;22.30
80958;DHT22;70419;42.700;23.316;2023-10-31T07:05:02;30.50;22.10
80958;DHT22;70419;42.700;23.316;2023-10-31T07:07:30;30.90;21.20
80958;DHT22;70419;42.700;23.316;2023-10-31T07:10:00;31.20;21.50
80958;DHT22;70419;42.700;23.316;2023-10-31T07:12:25;31.60;21.10
80958;DHT22;70419;42.700;23.316;2023-10-31T07:14:51;31.60;21.10
80958;DHT22;70419;42.700;23.316;2023-10-31T07:17:18;32.20;20.70
80958;DHT22;70419;42.700;23.316;2023-10-31T07:19:44;32.80;20.20
80958;DHT22;70419;42.700;23.316;2023-10-31T07:22:11;33.30;19.70
80958;DHT22;70419;42.700;23.316;2023-10-31T07:24:37;33.70;19.30
80958;DHT22;70419;42.700;23.316;2023-10-31T07:27:04;34.10;19.20
80958;DHT22;70419;42.700;23.316;2023-10-31T07:29:30;34.40;18.90
80958;DHT22;70419;42.700;23.316;2023-10-31T07:31:56;34.70;18.50
80958;DHT22;70419;42.700;23.316;2023-10-31T07:34:21;35.40;18.10
80958;DHT22;70419;42.700;23.316;2023-10-31T07:36:47;35.50;17.80
80958;DHT22;70419;42.700;23.316;2023-10-31T07:39:13;35.40;17.80
80958;DHT22;70419;42.700;23.316;2023-10-31T07:41:39;34.70;18.30
80958;DHT22;70419;42.700;23.316;2023-10-31T07:44:06;34.40;18.40
80958;DHT22;70419;42.700;23.316;2023-10-31T07:46:31;34.90;17.90
80958;DHT22;70419;42.700;23.316;2023-10-31T07:48:57;35.00;17.70
80958;DHT22;70419;42.700;23.316;2023-10-31T07:51:26;35.50;17.50
80958;DHT22;70419;42.700;23.316;2023-10-31T07:53:52;36.10;17.60
80958;DHT22;70419;42.700;23.316;2023-10-31T07:58:49;37.10;16.90
80958;DHT22;70419;42.700;23.316;2023-10-31T08:01:17;37.90;16.40
80958;DHT22;70419;42.700;23.316;2023-10-31T08:03:47;38.40;16.00
80958;DHT22;70419;42.700;23.316;2023-10-31T08:06:14;39.00;16.60
80958;DHT22;70419;42.700;23.316;2023-10-31T08:08:40;39.60;16.10
80958;DHT22;70419;42.700;23.316;2023-10-31T08:11:09;40.10;15.10
80958;DHT22;70419;42.700;23.316;2023-10-31T08:13:37;40.50;14.90
80958;DHT22;70419;42.700;23.316;2023-10-31T08:16:04;40.50;14.90
80958;DHT22;70419;42.700;23.316;2023-10-31T08:18:31;40.90;14.70
80958;DHT22;70419;42.700;23.316;2023-10-31T08:20:57;41.20;14.50
80958;DHT22;70419;42.700;23.316;2023-10-31T08:23:24;41.30;14.30
80958;DHT22;70419;42.700;23.316;2023-10-31T08:25:51;41.50;14.20
80958;DHT22;70419;42.700;23.316;2023-10-31T08:28:17;41.90;14.00
80958;DHT22;70419;42.700;23.316;2023-10-31T08:30:43;42.50;13.70
80958;DHT22;70419;42.700;23.316;2023-10-31T08:33:09;42.70;13.40
80958;DHT22;70419;42.700;23.316;2023-10-31T08:35:35;43.20;13.40
80958;DHT22;70419;42.700;23.316;2023-10-31T08:38:01;43.50;13.20
80958;DHT22;70419;42.700;23.316;2023-10-31T08:40:27;43.80;13.10
80958;DHT22;70419;42.700;23.316;2023-10-31T08:42:52;43.90;13.10
80958;DHT22;70419;42.700;23.316;2023-10-31T08:45:20;44.30;12.40
80958;DHT22;70419;42.700;23.316;2023-10-31T08:47:46;44.20;12.60
80958;DHT22;70419;42.700;23.316;2023-10-31T08:50:11;44.50;12.60
80958;DHT22;70419;42.700;23.316;2023-10-31T08:52:39;44.80;12.60
80958;DHT22;70419;42.700;23.316;2023-10-31T08:55:05;45.30;12.40
80958;DHT22;70419;42.700;23.316;2023-10-31T08:57:31;45.40;12.30
80958;DHT22;70419;42.700;23.316;2023-10-31T08:59:57;46.00;12.00
80958;DHT22;70419;42.700;23.316;2023-10-31T09:02:22;46.40;11.50
80958;DHT22;70419;42.700;23.316;2023-10-31T09:04:48;46.80;11.50
80958;DHT22;70419;42.700;23.316;2023-10-31T09:07:14;47.10;11.40
80958;DHT22;70419;42.700;23.316;2023-10-31T09:09:40;47.20;11.30
80958;DHT22;70419;42.700;23.316;2023-10-31T09:12:05;47.40;11.10
80958;DHT22;70419;42.700;23.316;2023-10-31T09:14:31;47.70;11.00
80958;DHT22;70419;42.700;23.316;2023-10-31T09:16:57;47.90;10.90
80958;DHT22;70419;42.700;23.316;2023-10-31T09:19:23;47.90;10.80
80958;DHT22;70419;42.700;23.316;2023-10-31T09:21:49;48.20;10.50
80958;DHT22;70419;42.700;23.316;2023-10-31T09:24:14;48.20;10.70
80958;DHT22;70419;42.700;23.316;2023-10-31T09:26:42;48.10;10.80
80958;DHT22;70419;42.700;23.316;2023-10-31T09:29:11;48.40;10.50
80958;DHT22;70419;42.700;23.316;2023-10-31T09:31:36;48.40;10.40
80958;DHT22;70419;42.700;23.316;2023-10-31T09:34:02;48.80;10.40
80958;DHT22;70419;42.700;23.316;2023-10-31T09:36:31;49.30;10.20
80958;DHT22;70419;42.700;23.316;2023-10-31T09:38:57;49.80;9.90
80958;DHT22;70419;42.700;23.316;2023-10-31T09:41:23;50.10;9.80
80958;DHT22;70419;42.700;23.316;2023-10-31T09:43:49;50.30;9.70
80958;DHT22;70419;42.700;23.316;2023-10-31T09:46:16;50.60;9.70
80958;DHT22;70419;42.700;23.316;2023-10-31T09:48:43;50.50;9.40
80958;DHT22;70419;42.700;23.316;2023-10-31T09:51:09;50.20;9.70
80958;DHT22;70419;42.700;23.316;2023-10-31T09:53:38;50.10;9.70
80958;DHT22;70419;42.700;23.316;2023-10-31T09:56:06;50.20;9.70
80958;DHT22;70419;42.700;23.316;2023-10-31T09:58:33;50.10;9.70
80958;DHT22;70419;42.700;23.316;2023-10-31T10:01:00;50.00;9.70
80958;DHT22;70419;42.700;23.316;2023-10-31T10:03:27;49.90;9.40
80958;DHT22;70419;42.700;23.316;2023-10-31T10:05:53;50.30;9.60
80958;DHT22;70419;42.700;23.316;2023-10-31T10:08:20;51.10;9.10
80958;DHT22;70419;42.700;23.316;2023-10-31T10:10:45;51.80;9.10
80958;DHT22;70419;42.700;23.316;2023-10-31T10:13:12;52.20;8.80
80958;DHT22;70419;42.700;23.316;2023-10-31T10:15:47;52.00;8.80
80958;DHT22;70419;42.700;23.316;2023-10-31T10:18:28;50.90;9.10
80958;DHT22;70419;42.700;23.316;2023-10-31T10:20:57;49.40;9.70
80958;DHT22;70419;42.700;23.316;2023-10-31T10:23:25;48.40;10.10
80958;DHT22;70419;42.700;23.316;2023-10-31T10:25:52;47.60;10.30
80958;DHT22;70419;42.700;23.316;2023-10-31T10:28:18;47.40;10.50
80958;DHT22;70419;42.700;23.316;2023-10-31T10:30:48;47.20;10.70
80958;DHT22;70419;42.700;23.316;2023-10-31T10:33:14;46.40;10.80
80958;DHT22;70419;42.700;23.316;2023-10-31T10:35:41;45.40;11.20
80958;DHT22;70419;42.700;23.316;2023-10-31T10:38:16;44.70;11.80
80958;DHT22;70419;42.700;23.316;2023-10-31T10:40:44;43.90;12.00
80958;DHT22;70419;42.700;23.316;2023-10-31T10:43:25;43.00;12.30
80958;DHT22;70419;42.700;23.316;2023-10-31T10:45:55;42.00;12.90
80958;DHT22;70419;42.700;23.316;2023-10-31T10:48:22;42.20;12.70
80958;DHT22;70419;42.700;23.316;2023-10-31T10:51:13;42.90;12.40
80958;DHT22;70419;42.700;23.316;2023-10-31T10:53:48;43.10;12.10
80958;DHT22;70419;42.700;23.316;2023-10-31T10:56:22;43.20;12.20
80958;DHT22;70419;42.700;23.316;2023-10-31T10:58:55;43.60;12.10
80958;DHT22;70419;42.700;23.316;2023-10-31T11:01:21;44.20;11.60
80958;DHT22;70419;42.700;23.316;2023-10-31T11:03:48;44.40;11.30
80958;DHT22;70419;42.700;23.316;2023-10-31T11:06:14;44.10;11.20
80958;DHT22;70419;42.700;23.316;2023-10-31T11:08:41;43.40;11.60
80958;DHT22;70419;42.700;23.316;2023-10-31T11:11:08;42.60;11.90
80958;DHT22;70419;42.700;23.316;2023-10-31T11:13:35;41.90;12.30
80958;DHT22;70419;42.700;23.316;2023-10-31T11:16:11;40.80;12.80
80958;DHT22;70419;42.700;23.316;2023-10-31T11:18:39;39.80;13.50
80958;DHT22;70419;42.700;23.316;2023-10-31T11:21:05;38.80;14.00
80958;DHT22;70419;42.700;23.316;2023-10-31T11:23:31;38.00;14.30
80958;DHT22;70419;42.700;23.316;2023-10-31T11:25:57;37.20;14.90
80958;DHT22;70419;42.700;23.316;2023-10-31T11:28:22;36.20;14.80
80958;DHT22;70419;42.700;23.316;2023-10-31T11:30:49;35.40;15.30
80958;DHT22;70419;42.700;23.316;2023-10-31T11:33:19;34.60;15.90
80958;DHT22;70419;42.700;23.316;2023-10-31T11:35:50;33.70;16.30
80958;DHT22;70419;42.700;23.316;2023-10-31T11:38:16;33.10;16.80
80958;DHT22;70419;42.700;23.316;2023-10-31T11:41:01;32.40;17.60
80958;DHT22;70419;42.700;23.316;2023-10-31T11:46:20;31.60;18.20
80958;DHT22;70419;42.700;23.316;2023-10-31T11:48:50;31.50;18.30
80958;DHT22;70419;42.700;23.316;2023-10-31T11:51:17;31.60;18.10
80958;DHT22;70419;42.700;23.316;2023-10-31T11:53:44;31.60;18.10
80958;DHT22;70419;42.700;23.316;2023-10-31T11:56:10;31.40;18.30
80958;DHT22;70419;42.700;23.316;2023-10-31T11:58:37;31.10;18.30
80958;DHT22;70419;42.700;23.316;2023-10-31T12:01:04;30.80;18.50
80958;DHT22;70419;42.700;23.316;2023-10-31T12:03:41;30.50;18.90
80958;DHT22;70419;42.700;23.316;2023-10-31T12:06:09;30.20;18.80
80958;DHT22;70419;42.700;23.316;2023-10-31T12:08:38;29.90;19.30
80958;DHT22;70419;42.700;23.316;2023-10-31T12:11:08;29.60;19.60
80958;DHT22;70419;42.700;23.316;2023-10-31T12:13:38;29.30;20.00
80958;DHT22;70419;42.700;23.316;2023-10-31T12:16:04;29.20;20.20
80958;DHT22;70419;42.700;23.316;2023-10-31T12:18:31;29.10;20.30
80958;DHT22;70419;42.700;23.316;2023-10-31T12:20:57;29.40;20.50
80958;DHT22;70419;42.700;23.316;2023-10-31T12:23:25;30.20;20.00
80958;DHT22;70419;42.700;23.316;2023-10-31T12:25:51;31.20;18.70
80958;DHT22;70419;42.700;23.316;2023-10-31T12:28:21;32.70;18.00
80958;DHT22;70419;42.700;23.316;2023-10-31T12:30:49;34.60;16.70
80958;DHT22;70419;42.700;23.316;2023-10-31T12:33:16;36.70;15.50
80958;DHT22;70419;42.700;23.316;2023-10-31T12:35:43;38.70;14.40
80958;DHT22;70419;42.700;23.316;2023-10-31T12:38:11;39.60;13.90
80958;DHT22;70419;42.700;23.316;2023-10-31T12:40:37;40.20;13.40
80958;DHT22;70419;42.700;23.316;2023-10-31T12:43:03;40.70;13.30
80958;DHT22;70419;42.700;23.316;2023-10-31T12:45:29;41.20;13.10
80958;DHT22;70419;42.700;23.316;2023-10-31T12:48:03;41.40;12.70
80958;DHT22;70419;42.700;23.316;2023-10-31T12:50:31;41.30;12.80
80958;DHT22;70419;42.700;23.316;2023-10-31T12:52:57;40.30;13.40
80958;DHT22;70419;42.700;23.316;2023-10-31T12:55:25;39.20;13.90
80958;DHT22;70419;42.700;23.316;2023-10-31T12:57:51;38.00;14.80
80958;DHT22;70419;42.700;23.316;2023-10-31T13:00:19;36.60;15.50
80958;DHT22;70419;42.700;23.316;2023-10-31T13:02:52;35.20;16.40
80958;DHT22;70419;42.700;23.316;2023-10-31T13:05:26;34.00;17.30
80958;DHT22;70419;42.700;23.316;2023-10-31T13:07:52;32.90;18.30
80958;DHT22;70419;42.700;23.316;2023-10-31T13:10:19;31.90;18.90
80958;DHT22;70419;42.700;23.316;2023-10-31T13:12:46;31.20;19.70
80958;DHT22;70419;42.700;23.316;2023-10-31T13:15:13;30.50;20.40
80958;DHT22;70419;42.700;23.316;2023-10-31T13:17:40;29.90;20.80
80958;DHT22;70419;42.700;23.316;2023-10-31T13:20:09;29.50;21.20
80958;DHT22;70419;42.700;23.316;2023-10-31T13:22:37;29.30;21.70
80958;DHT22;70419;42.700;23.316;2023-10-31T13:25:04;28.80;22.00
80958;DHT22;70419;42.700;23.316;2023-10-31T13:27:31;28.50;22.30
80958;DHT22;70419;42.700;23.316;2023-10-31T13:29:57;28.40;22.60
80958;DHT22;70419;42.700;23.316;2023-10-31T13:32:23;28.20;22.80
80958;DHT22;70419;42.700;23.316;2023-10-31T13:34:51;28.40;22.10
80958;DHT22;70419;42.700;23.316;2023-10-31T13:37:18;29.40;22.20
80958;DHT22;70419;42.700;23.316;2023-10-31T13:39:44;30.90;20.70
80958;DHT22;70419;42.700;23.316;2023-10-31T13:42:10;32.40;19.60
80958;DHT22;70419;42.700;23.316;2023-10-31T13:44:37;33.90;18.60
80958;DHT22;70419;42.700;23.316;2023-10-31T13:47:03;34.90;17.70
80958;DHT22;70419;42.700;23.316;2023-10-31T13:49:29;35.50;17.40
80958;DHT22;70419;42.700;23.316;2023-10-31T13:51:54;35.70;17.00
80958;DHT22;70419;42.700;23.316;2023-10-31T13:54:20;35.90;17.00
80958;DHT22;70419;42.700;23.316;2023-10-31T13:56:47;36.20;16.80
80958;DHT22;70419;42.700;23.316;2023-10-31T13:59:13;36.40;16.50
80958;DHT22;70419;42.700;23.316;2023-10-31T14:01:40;36.30;16.50
80958;DHT22;70419;42.700;23.316;2023-10-31T14:04:07;35.70;16.80
80958;DHT22;70419;42.700;23.316;2023-10-31T14:06:33;34.70;17.30
80958;DHT22;70419;42.700;23.316;2023-10-31T14:09:00;33.70;18.10
80958;DHT22;70419;42.700;23.316;2023-10-31T14:11:31;32.70;18.80
80958;DHT22;70419;42.700;23.316;2023-10-31T14:13:57;31.80;19.80
80958;DHT22;70419;42.700;23.316;2023-10-31T14:16:29;31.00;20.30
80958;DHT22;70419;42.700;23.316;2023-10-31T14:18:56;30.20;21.10
80958;DHT22;70419;42.700;23.316;2023-10-31T14:21:22;29.50;22.00
80958;DHT22;70419;42.700;23.316;2023-10-31T14:23:48;28.90;22.50
80958;DHT22;70419;42.700;23.316;2023-10-31T14:26:20;28.20;23.30
80958;DHT22;70419;42.700;23.316;2023-10-31T14:28:47;27.60;23.70
80958;DHT22;70419;42.700;23.316;2023-10-31T14:31:13;27.20;24.40
80958;DHT22;70419;42.700;23.316;2023-10-31T14:33:39;26.70;24.90
80958;DHT22;70419;42.700;23.316;2023-10-31T14:36:06;26.30;25.70
80958;DHT22;70419;42.700;23.316;2023-10-31T14:38:33;25.90;26.40
80958;DHT22;70419;42.700;23.316;2023-10-31T14:40:58;25.50;26.60
80958;DHT22;70419;42.700;23.316;2023-10-31T14:43:24;25.30;27.40
80958;DHT22;70419;42.700;23.316;2023-10-31T14:45:50;25.00;27.60
80958;DHT22;70419;42.700;23.316;2023-10-31T14:48:15;24.70;28.10
80958;DHT22;70419;42.700;23.316;2023-10-31T14:50:41;24.50;28.60
80958;DHT22;70419;42.700;23.316;2023-10-31T14:53:07;24.20;29.20
80958;DHT22;70419;42.700;23.316;2023-10-31T14:55:34;24.00;29.40
80958;DHT22;70419;42.700;23.316;2023-10-31T14:58:01;23.90;29.90
80958;DHT22;70419;42.700;23.316;2023-10-31T15:00:27;23.70;30.00
80958;DHT22;70419;42.700;23.316;2023-10-31T15:02:53;23.50;30.30
80958;DHT22;70419;42.700;23.316;2023-10-31T15:05:19;23.30;30.60
80958;DHT22;70419;42.700;23.316;2023-10-31T15:07:44;23.20;31.10
80958;DHT22;70419;42.700;23.316;2023-10-31T15:10:10;23.10;31.40
80958;DHT22;70419;42.700;23.316;2023-10-31T15:12:36;22.90;31.70
80958;DHT22;70419;42.700;23.316;2023-10-31T15:15:02;22.90;32.00
80958;DHT22;70419;42.700;23.316;2023-10-31T15:17:27;22.70;31.60
80958;DHT22;70419;42.700;23.316;2023-10-31T15:19:53;22.60;31.70